createdAt,value
2022-09-03T00:00:53.969Z,22.57
2022-09-03T00:03:45.870Z,22.59
2022-09-03T00:06:27.051Z,22.62
2022-09-03T00:09:09.388Z,22.68
2022-09-03T00:12:05.920Z,22.70
2022-09-03T00:14:49.297Z,22.57
2022-09-03T00:17:19.611Z,22.54
2022-09-03T00:20:03.144Z,22.51
2022-09-03T00:22:38.411Z,22.30
2022-09-03T00:25:12.989Z,22.38
2022-09-03T00:27:41.845Z,22.36
2022-09-03T00:30:17.386Z,22.61
2022-09-03T00:33:06.927Z,22.57
2022-09-03T00:35:53.977Z,22.27
2022-09-03T00:38:22.289Z,22.30
2022-09-03T00:41:16.771Z,22.28
2022-09-03T00:44:21.552Z,22.26
2022-09-03T00:47:04.591Z,22.23
2022-09-03T00:49:44.385Z,22.29
2022-09-03T00:52:50.548Z,22.38
2022-09-03T00:55:36.125Z,22.39
2022-09-03T00:58:21.470Z,22.34
2022-09-03T01:00:50.406Z,22.35
2022-09-03T01:03:43.709Z,22.34
2022-09-03T01:06:27.863Z,22.33
2022-09-03T01:09:14.720Z,22.42
2022-09-03T01:12:38.268Z,22.36
2022-09-03T01:15:42.337Z,22.28
2022-09-03T01:18:28.249Z,22.49
2022-09-03T01:21:08.814Z,22.35
2022-09-03T01:23:57.070Z,22.15
2022-09-03T01:26:38.934Z,22.41
2022-09-03T01:29:35.468Z,22.12
2022-09-03T01:32:33.360Z,22.04
2022-09-03T01:35:12.654Z,22.28
2022-09-03T01:38:05.532Z,22.19
2022-09-03T01:40:47.941Z,22.28
2022-09-03T01:43:45.619Z,22.31
2022-09-03T01:46:24.341Z,22.05
2022-09-03T01:48:54.581Z,22.03
2022-09-03T01:51:25.121Z,22.03
2022-09-03T01:54:21.926Z,22.09
2022-09-03T01:57:17.243Z,21.98
2022-09-03T02:00:03.981Z,22.05
2022-09-03T02:02:41.230Z,22.12
2022-09-03T02:05:27.849Z,22.09
2022-09-03T02:07:59.117Z,22.03
2022-09-03T02:10:45.231Z,22.09
2022-09-03T02:13:19.005Z,22.19
2022-09-03T02:15:48.744Z,22.27
2022-09-03T02:18:20.896Z,22.13
2022-09-03T02:20:49.600Z,22.15
2022-09-03T02:23:16.817Z,22.12
2022-09-03T02:25:50.198Z,21.98
2022-09-03T02:28:17.729Z,21.94
2022-09-03T02:30:45.200Z,21.91
2022-09-03T02:33:12.658Z,21.85
2022-09-03T02:35:40.722Z,21.90
2022-09-03T02:38:13.112Z,21.92
2022-09-03T02:40:39.955Z,22.09
2022-09-03T02:43:12.202Z,22.10
2022-09-03T02:45:45.746Z,22.06
2022-09-03T02:48:17.127Z,22.16
2022-09-03T02:50:43.802Z,22.00
2022-09-03T02:53:10.604Z,22.06
2022-09-03T02:55:37.231Z,22.02
2022-09-03T02:58:06.807Z,21.87
2022-09-03T03:00:33.552Z,21.94
2022-09-03T03:03:00.199Z,22.07
2022-09-03T03:05:41.910Z,22.13
2022-09-03T03:08:09.012Z,22.01
2022-09-03T03:10:35.733Z,22.06
2022-09-03T03:13:02.354Z,22.00
2022-09-03T03:15:28.982Z,21.85
2022-09-03T03:17:57.073Z,21.97
2022-09-03T03:20:24.080Z,21.86
2022-09-03T03:22:50.853Z,21.82
2022-09-03T03:25:17.557Z,21.99
2022-09-03T03:27:45.423Z,21.91
2022-09-03T03:30:12.928Z,21.75
2022-09-03T03:35:07.033Z,21.76
2022-09-03T03:37:33.709Z,21.74
2022-09-03T03:40:00.397Z,21.65
2022-09-03T03:42:27.097Z,21.83
2022-09-03T03:44:53.749Z,21.77
2022-09-03T03:47:20.433Z,21.61
2022-09-03T03:49:47.066Z,21.45
2022-09-03T03:52:13.649Z,21.59
2022-09-03T03:54:40.537Z,21.59
2022-09-03T03:57:07.147Z,21.73
2022-09-03T03:59:33.813Z,21.70
2022-09-03T04:02:00.547Z,21.75
2022-09-03T04:04:27.359Z,21.68
2022-09-03T04:06:53.984Z,21.49
2022-09-03T04:09:21.049Z,21.52
2022-09-03T04:11:47.715Z,21.51
2022-09-03T04:14:14.353Z,21.67
2022-09-03T04:16:41.165Z,21.67
2022-09-03T04:19:07.905Z,21.68
2022-09-03T04:21:34.825Z,21.64
2022-09-03T04:24:04.135Z,21.74
2022-09-03T04:26:32.617Z,21.76
2022-09-03T04:29:02.251Z,21.71
2022-09-03T04:31:29.409Z,21.45
2022-09-03T04:33:56.646Z,21.57
2022-09-03T04:36:25.642Z,21.60
2022-09-03T04:38:54.511Z,21.37
2022-09-03T04:41:26.712Z,21.38
2022-09-03T04:43:55.152Z,21.31
2022-09-03T04:46:23.833Z,21.38
2022-09-03T04:48:52.509Z,21.32
2022-09-03T04:51:23.328Z,21.09
2022-09-03T04:53:55.668Z,21.14
2022-09-03T04:56:25.438Z,21.22
2022-09-03T04:59:01.491Z,21.14
2022-09-03T05:01:30.853Z,21.07
2022-09-03T05:03:58.379Z,21.14
2022-09-03T05:06:26.345Z,21.12
2022-09-03T05:08:54.486Z,21.28
2022-09-03T05:11:22.332Z,21.40
2022-09-03T05:13:54.433Z,21.18
2022-09-03T05:16:23.508Z,21.08
2022-09-03T05:18:54.975Z,21.06
2022-09-03T05:21:22.503Z,20.97
2022-09-03T05:23:50.892Z,20.87
2022-09-03T05:26:20.036Z,21.02
2022-09-03T05:28:46.989Z,20.90
2022-09-03T05:31:17.113Z,20.86
2022-09-03T05:33:49.381Z,20.84
2022-09-03T05:36:24.363Z,21.03
2022-09-03T05:38:54.050Z,20.91
2022-09-03T05:41:23.574Z,21.12
2022-09-03T05:43:55.068Z,21.16
2022-09-03T05:46:31.568Z,21.19
2022-09-03T05:49:02.851Z,21.05
2022-09-03T05:51:30.658Z,21.18
2022-09-03T05:53:57.989Z,21.32
2022-09-03T05:56:27.211Z,21.24
2022-09-03T05:58:56.649Z,21.20
2022-09-03T06:01:25.984Z,21.10
2022-09-03T06:03:58.475Z,20.95
2022-09-03T06:06:26.956Z,20.78
2022-09-03T06:08:59.205Z,21.07
2022-09-03T06:11:28.227Z,20.94
2022-09-03T06:14:01.425Z,21.03
2022-09-03T06:16:31.667Z,20.91
2022-09-03T06:18:59.760Z,20.81
2022-09-03T06:21:27.083Z,21.08
2022-09-03T06:23:59.414Z,20.91
2022-09-03T06:26:28.578Z,20.77
2022-09-03T06:28:56.237Z,20.99
2022-09-03T06:31:23.769Z,21.01
2022-09-03T06:33:50.570Z,20.92
2022-09-03T06:36:19.820Z,20.89
2022-09-03T06:38:47.441Z,20.65
2022-09-03T06:41:24.883Z,20.76
2022-09-03T06:44:03.253Z,20.68
2022-09-03T06:46:38.917Z,20.72
2022-09-03T06:49:06.051Z,20.69
2022-09-03T06:51:33.480Z,20.56
2022-09-03T06:54:11.674Z,20.59
2022-09-03T06:56:41.252Z,20.50
2022-09-03T06:59:14.594Z,20.61
2022-09-03T07:01:45.183Z,20.63
2022-09-03T07:04:14.633Z,20.40
2022-09-03T07:06:42.630Z,20.11
2022-09-03T07:09:11.089Z,19.96
2022-09-03T07:11:39.208Z,19.99
2022-09-03T07:14:05.935Z,20.10
2022-09-03T07:16:35.116Z,20.20
2022-09-03T07:19:03.581Z,19.85
2022-09-03T07:21:34.024Z,20.00
2022-09-03T07:24:00.815Z,20.04
2022-09-03T07:26:30.943Z,20.05
2022-09-03T07:28:58.924Z,20.09
2022-09-03T07:31:33.921Z,20.24
2022-09-03T07:34:10.011Z,20.33
2022-09-03T07:36:48.803Z,20.27
2022-09-03T07:39:16.747Z,20.41
2022-09-03T07:41:45.717Z,20.32
2022-09-03T07:44:19.460Z,20.17
2022-09-03T07:46:47.865Z,20.13
2022-09-03T07:49:15.094Z,20.08
2022-09-03T07:51:42.013Z,20.09
2022-09-03T07:54:11.265Z,19.89
2022-09-03T07:56:40.029Z,19.66
2022-09-03T07:59:07.271Z,19.72
2022-09-03T08:01:35.955Z,19.68
2022-09-03T08:04:04.286Z,19.90
2022-09-03T08:06:33.941Z,20.09
2022-09-03T08:09:05.228Z,19.89
2022-09-03T08:11:36.378Z,19.76
2022-09-03T08:14:08.213Z,19.57
2022-09-03T08:16:41.787Z,19.58
2022-09-03T08:19:08.838Z,19.45
2022-09-03T08:21:35.978Z,19.37
2022-09-03T08:24:02.969Z,19.79
2022-09-03T08:26:32.064Z,19.78
2022-09-03T08:28:59.621Z,19.49
2022-09-03T08:31:27.974Z,19.57
2022-09-03T08:33:56.779Z,19.77
2022-09-03T08:36:29.996Z,19.98
2022-09-03T08:38:58.583Z,19.98
2022-09-03T08:41:35.073Z,19.98
2022-09-03T08:44:20.594Z,19.82
2022-09-03T08:47:10.452Z,19.64
2022-09-03T08:49:48.946Z,19.56
2022-09-03T08:52:49.131Z,19.47
2022-09-03T08:55:27.621Z,19.45
2022-09-03T08:58:03.323Z,19.43
2022-09-03T09:00:46.661Z,19.31
2022-09-03T09:03:16.449Z,19.27
2022-09-03T09:06:07.981Z,19.11
2022-09-03T09:08:46.814Z,18.91
2022-09-03T09:11:32.009Z,19.04
2022-09-03T09:14:11.221Z,19.13
2022-09-03T09:17:13.903Z,19.19
2022-09-03T09:20:02.980Z,19.32
2022-09-03T09:22:32.814Z,19.35
2022-09-03T09:25:04.376Z,19.42
2022-09-03T09:27:32.917Z,19.41
2022-09-03T09:30:04.069Z,19.76
2022-09-03T09:32:31.906Z,19.71
2022-09-03T09:34:58.659Z,19.77
2022-09-03T09:37:25.634Z,19.67
2022-09-03T09:40:00.660Z,19.91
2022-09-03T09:42:29.921Z,19.86
2022-09-03T09:44:56.654Z,19.81
2022-09-03T09:47:34.540Z,20.04
2022-09-03T09:50:03.002Z,20.26
2022-09-03T09:52:31.460Z,20.34
2022-09-03T09:55:16.094Z,20.40
2022-09-03T09:57:42.888Z,20.81
2022-09-03T10:00:16.135Z,21.00
2022-09-03T10:02:56.952Z,21.42
2022-09-03T10:05:30.600Z,21.75
2022-09-03T10:07:59.806Z,21.88
2022-09-03T10:10:28.974Z,21.97
2022-09-03T10:13:09.342Z,21.81
2022-09-03T10:15:40.325Z,21.69
2022-09-03T10:18:12.520Z,21.84
2022-09-03T10:20:50.996Z,21.77
2022-09-03T10:23:25.638Z,21.61
2022-09-03T10:26:07.150Z,21.69
2022-09-03T10:28:40.488Z,21.66
2022-09-03T10:31:13.623Z,21.83
2022-09-03T10:34:04.353Z,21.65
2022-09-03T10:36:40.646Z,22.08
2022-09-03T10:39:15.267Z,22.15
2022-09-03T10:41:55.847Z,22.33
2022-09-03T10:44:49.395Z,22.43
2022-09-03T10:47:23.510Z,22.36
2022-09-03T10:50:10.949Z,22.62
2022-09-03T10:52:52.572Z,22.51
2022-09-03T10:55:46.622Z,22.28
2022-09-03T10:58:40.613Z,22.26
2022-09-03T11:01:22.212Z,22.24
2022-09-03T11:04:10.917Z,22.50
2022-09-03T11:06:48.294Z,22.71
2022-09-03T11:09:19.921Z,22.71
2022-09-03T11:11:55.234Z,22.71
2022-09-03T11:15:18.232Z,22.78
2022-09-03T11:18:27.715Z,22.71
2022-09-03T11:21:01.305Z,22.73
2022-09-03T11:23:31.951Z,22.86
2022-09-03T11:26:03.368Z,23.04
2022-09-03T11:28:45.342Z,23.07
2022-09-03T11:31:23.832Z,23.14
2022-09-03T11:34:01.037Z,23.30
2022-09-03T11:36:32.023Z,23.20
2022-09-03T11:39:00.435Z,23.31
2022-09-03T11:41:34.799Z,23.40
2022-09-03T11:44:18.790Z,23.30
2022-09-03T11:46:57.000Z,23.13
2022-09-03T11:49:32.868Z,23.29
2022-09-03T11:52:08.036Z,23.24
2022-09-03T11:54:44.552Z,23.33
2022-09-03T11:57:21.906Z,23.22
2022-09-03T11:59:48.885Z,23.21
2022-09-03T12:02:27.319Z,23.22
2022-09-03T12:05:13.893Z,23.19
2022-09-03T12:07:48.607Z,23.30
2022-09-03T12:10:39.831Z,23.43
2022-09-03T12:13:26.358Z,23.51
2022-09-03T12:16:18.865Z,23.34
2022-09-03T12:18:49.238Z,23.36
2022-09-03T12:21:17.533Z,23.45
2022-09-03T12:23:47.716Z,23.43
2022-09-03T12:26:16.390Z,23.44
2022-09-03T12:28:47.847Z,23.39
2022-09-03T12:31:22.865Z,23.37
2022-09-03T12:34:01.470Z,23.51
2022-09-03T12:36:40.438Z,23.89
2022-09-03T12:39:16.213Z,23.60
2022-09-03T12:42:06.237Z,23.41
2022-09-03T12:44:35.636Z,23.37
2022-09-03T12:50:08.277Z,23.59
2022-09-03T12:52:41.563Z,23.59
2022-09-03T12:55:34.869Z,23.36
2022-09-03T12:58:14.021Z,23.47
2022-09-03T13:01:04.411Z,23.51
2022-09-03T13:03:41.518Z,23.65
2022-09-03T13:06:13.727Z,23.59
2022-09-03T13:08:56.784Z,23.59
2022-09-03T13:11:24.571Z,23.59
2022-09-03T13:14:00.652Z,23.67
2022-09-03T13:16:45.745Z,23.81
2022-09-03T13:19:26.925Z,24.00
2022-09-03T13:22:14.611Z,24.01
2022-09-03T13:25:00.030Z,24.13
2022-09-03T13:27:44.754Z,24.17
2022-09-03T13:30:23.315Z,23.99
2022-09-03T13:33:06.026Z,23.93
2022-09-03T13:35:49.669Z,23.78
2022-09-03T13:38:41.790Z,23.84
2022-09-03T13:41:19.987Z,24.11
2022-09-03T13:44:05.537Z,24.08
2022-09-03T13:46:42.232Z,24.12
2022-09-03T13:49:44.241Z,23.98
2022-09-03T13:52:25.275Z,24.13
2022-09-03T13:55:02.962Z,24.18
2022-09-03T13:57:49.301Z,24.36
2022-09-03T14:00:32.879Z,24.19
2022-09-03T14:03:21.337Z,24.01
2022-09-03T14:06:07.771Z,23.77
2022-09-03T14:08:55.460Z,23.70
2022-09-03T14:11:31.328Z,23.64
2022-09-03T14:14:11.483Z,23.52
2022-09-03T14:16:55.269Z,23.45
2022-09-03T14:19:43.856Z,23.65
2022-09-03T14:22:17.392Z,23.86
2022-09-03T14:24:53.802Z,23.75
2022-09-03T14:27:29.517Z,23.66
2022-09-03T14:30:06.542Z,23.83
2022-09-03T14:32:45.193Z,24.09
2022-09-03T14:35:24.276Z,25.07
2022-09-03T14:38:00.790Z,25.78
2022-09-03T14:40:40.210Z,26.24
2022-09-03T14:43:45.453Z,26.40
2022-09-03T14:46:44.871Z,26.22
2022-09-03T14:49:17.643Z,25.66
2022-09-03T14:52:07.283Z,25.05
2022-09-03T14:54:41.872Z,24.62
2022-09-03T14:57:28.737Z,24.30
2022-09-03T15:00:19.703Z,24.30
2022-09-03T15:02:52.336Z,24.16
2022-09-03T15:05:49.867Z,24.08
2022-09-03T15:08:20.830Z,23.88
2022-09-03T15:10:57.769Z,23.90
2022-09-03T15:13:28.379Z,23.83
2022-09-03T15:16:14.704Z,23.63
2022-09-03T15:19:01.752Z,23.61
2022-09-03T15:21:47.108Z,23.22
2022-09-03T15:24:44.175Z,23.37
2022-09-03T15:27:38.519Z,23.30
2022-09-03T15:30:09.954Z,22.92
2022-09-03T15:32:46.795Z,22.98
2022-09-03T15:35:38.052Z,22.55
2022-09-03T15:38:20.746Z,22.06
2022-09-03T15:40:47.319Z,22.28
2022-09-03T15:43:41.069Z,22.32
2022-09-03T15:46:28.780Z,22.46
2022-09-03T15:49:03.445Z,22.49
2022-09-03T15:51:49.899Z,22.39
2022-09-03T15:54:25.314Z,22.38
2022-09-03T15:57:02.405Z,22.46
2022-09-03T15:59:58.587Z,22.29
2022-09-03T16:02:47.406Z,22.27
2022-09-03T16:05:20.858Z,22.34
2022-09-03T16:08:05.387Z,22.14
2022-09-03T16:10:55.413Z,22.26
2022-09-03T16:13:53.506Z,22.23
2022-09-03T16:16:24.268Z,22.23
2022-09-03T16:19:17.038Z,22.21
2022-09-03T16:22:03.129Z,22.22
2022-09-03T16:24:53.975Z,22.19
2022-09-03T16:27:24.641Z,22.32
2022-09-03T16:30:16.369Z,22.05
2022-09-03T16:33:06.011Z,22.06
2022-09-03T16:35:54.967Z,22.29
2022-09-03T16:38:53.811Z,22.01
2022-09-03T16:41:43.986Z,21.84
2022-09-03T16:44:10.698Z,21.84
2022-09-03T16:46:51.025Z,21.99
2022-09-03T16:50:08.520Z,22.03
2022-09-03T16:53:04.287Z,21.86
2022-09-03T16:55:57.331Z,21.91
2022-09-03T16:59:00.170Z,22.01
2022-09-03T17:01:29.915Z,22.05
2022-09-03T17:04:22.803Z,22.04
2022-09-03T17:07:14.242Z,21.98
2022-09-03T17:10:02.567Z,22.14
2022-09-03T17:12:48.320Z,22.32
2022-09-03T17:16:00.457Z,22.40
2022-09-03T17:18:51.727Z,22.31
2022-09-03T17:21:32.395Z,22.11
2022-09-03T17:24:17.597Z,22.33
2022-09-03T17:27:12.928Z,22.10
2022-09-03T17:29:51.965Z,22.09
2022-09-03T17:32:47.907Z,22.17
2022-09-03T17:35:29.828Z,22.08
2022-09-03T17:38:24.107Z,21.99
2022-09-03T17:41:05.632Z,21.93
2022-09-03T17:44:28.053Z,21.99
2022-09-03T17:46:54.781Z,21.84
2022-09-03T17:49:42.643Z,21.86
2022-09-03T17:52:32.158Z,21.76
2022-09-03T17:55:25.228Z,21.89
2022-09-03T17:58:11.317Z,21.83
2022-09-03T18:00:41.920Z,22.13
2022-09-03T18:03:24.411Z,22.07
2022-09-03T18:06:06.203Z,21.97
2022-09-03T18:09:05.028Z,22.05
2022-09-03T18:11:38.468Z,21.87
2022-09-03T18:14:23.480Z,21.78
2022-09-03T18:17:03.093Z,21.76
2022-09-03T18:20:11.325Z,21.90
2022-09-03T18:23:16.023Z,21.89
2022-09-03T18:26:04.523Z,21.81
2022-09-03T18:29:16.399Z,21.83
2022-09-03T18:32:02.357Z,22.02
2022-09-03T18:34:51.598Z,21.94
2022-09-03T18:37:40.463Z,22.05
2022-09-03T18:40:28.436Z,21.99
2022-09-03T18:43:29.325Z,21.86
2022-09-03T18:49:53.907Z,21.82
2022-09-03T18:53:01.261Z,21.67
2022-09-03T18:55:58.628Z,21.69
2022-09-03T18:58:58.896Z,21.74
2022-09-03T19:01:56.969Z,21.62
2022-09-03T19:05:25.024Z,21.64
2022-09-03T19:08:36.361Z,21.64
2022-09-03T19:11:38.127Z,21.50
2022-09-03T19:14:33.125Z,21.62
2022-09-03T19:17:39.455Z,21.85
2022-09-03T19:20:40.435Z,21.77
2022-09-03T19:23:25.975Z,21.66
2022-09-03T19:26:17.001Z,21.49
2022-09-03T19:29:06.421Z,21.37
2022-09-03T19:32:01.060Z,21.48
2022-09-03T19:34:55.328Z,21.69
2022-09-03T19:37:53.469Z,21.66
2022-09-03T19:40:55.451Z,21.57
2022-09-03T19:44:12.295Z,21.55
2022-09-03T19:47:18.031Z,21.40
2022-09-03T19:50:18.779Z,21.39
2022-09-03T19:53:14.774Z,21.21
2022-09-03T19:56:07.906Z,21.39
2022-09-03T19:58:56.928Z,21.36
2022-09-03T20:01:48.348Z,21.40
2022-09-03T20:04:34.934Z,21.35
2022-09-03T20:07:24.224Z,21.21
2022-09-03T20:10:11.922Z,21.34
2022-09-03T20:12:49.267Z,21.33
2022-09-03T20:15:16.388Z,21.26
2022-09-03T20:18:21.777Z,21.23
2022-09-03T20:21:23.773Z,21.19
2022-09-03T20:23:50.343Z,21.11
2022-09-03T20:26:44.930Z,20.99
2022-09-03T20:29:14.517Z,20.96
2022-09-03T20:31:53.757Z,20.92
2022-09-03T20:34:54.596Z,20.94
2022-09-03T20:37:41.946Z,20.95
2022-09-03T20:40:26.977Z,20.96
2022-09-03T20:43:20.473Z,20.98
2022-09-03T20:45:50.298Z,20.92
2022-09-03T20:48:36.685Z,20.99
2022-09-03T20:51:12.215Z,21.02
2022-09-03T20:53:58.240Z,20.93
2022-09-03T20:56:48.810Z,20.88
2022-09-03T20:59:30.682Z,20.87
2022-09-03T21:02:08.995Z,20.90
2022-09-03T21:05:09.485Z,20.87
2022-09-03T21:07:42.322Z,20.81
2022-09-03T21:10:14.570Z,20.82
2022-09-03T21:12:53.484Z,20.89
2022-09-03T21:15:32.010Z,20.90
2022-09-03T21:18:24.535Z,20.83
2022-09-03T21:21:09.827Z,20.78
2022-09-03T21:24:00.473Z,20.75
2022-09-03T21:26:30.987Z,20.83
2022-09-03T21:29:12.349Z,20.90
2022-09-03T21:31:53.695Z,20.94
2022-09-03T21:34:30.202Z,20.75
2022-09-03T21:36:57.877Z,20.89
2022-09-03T21:39:36.379Z,20.95
2022-09-03T21:42:30.882Z,20.89
2022-09-03T21:45:06.386Z,20.81
2022-09-03T21:47:40.960Z,20.86
2022-09-03T21:50:21.165Z,20.91
2022-09-03T21:52:54.302Z,20.65
2022-09-03T21:55:38.217Z,20.91
2022-09-03T21:58:18.354Z,20.75
2022-09-03T22:00:46.601Z,20.79
2022-09-03T22:03:14.012Z,20.85
2022-09-03T22:05:53.028Z,20.85
2022-09-03T22:09:18.709Z,20.65
2022-09-03T22:11:57.416Z,20.52
2022-09-03T22:14:27.991Z,20.62
2022-09-03T22:17:02.780Z,20.63
2022-09-03T22:19:37.392Z,20.66
2022-09-03T22:22:12.994Z,20.73
2022-09-03T22:24:45.653Z,20.63
2022-09-03T22:27:49.638Z,20.59
2022-09-03T22:30:21.377Z,20.72
2022-09-03T22:33:49.772Z,20.69
2022-09-03T22:36:27.373Z,20.57
2022-09-03T22:39:12.177Z,20.59
2022-09-03T22:41:57.518Z,21.01
2022-09-03T22:44:33.268Z,21.17
2022-09-03T22:47:38.994Z,21.00
2022-09-03T22:50:34.521Z,20.77
2022-09-03T22:53:10.672Z,20.71
2022-09-03T22:55:45.296Z,20.67
2022-09-03T22:58:17.722Z,20.61
2022-09-03T23:00:55.327Z,20.60
2022-09-03T23:03:38.031Z,20.52
2022-09-03T23:06:09.928Z,20.43
2022-09-03T23:08:44.597Z,20.34
2022-09-03T23:11:31.172Z,20.22
2022-09-03T23:14:06.148Z,20.28
2022-09-03T23:16:53.303Z,20.23
2022-09-03T23:19:33.320Z,20.22
2022-09-03T23:22:22.289Z,20.29
2022-09-03T23:25:25.105Z,20.15
2022-09-03T23:28:00.988Z,20.23
2022-09-03T23:30:28.092Z,20.15
2022-09-03T23:32:59.494Z,20.23
2022-09-03T23:35:34.333Z,20.22
2022-09-03T23:38:30.376Z,20.22
2022-09-03T23:41:03.246Z,20.16
2022-09-03T23:43:59.834Z,20.15
2022-09-03T23:46:41.417Z,20.10
2022-09-03T23:49:23.756Z,19.87
2022-09-03T23:52:24.885Z,19.94
2022-09-03T23:55:13.216Z,19.82
2022-09-03T23:57:41.707Z,19.85
